createdAt,value
2019-01-28T00:00:22.405Z,0
2019-01-28T00:01:32.360Z,0
2019-01-28T00:02:42.341Z,0
2019-01-28T00:03:52.284Z,0
2019-01-28T00:05:02.222Z,0
2019-01-28T00:06:12.188Z,0
2019-01-28T00:07:22.131Z,0
2019-01-28T00:08:31.840Z,0
2019-01-28T00:09:41.514Z,0
2019-01-28T00:10:50.952Z,0
2019-01-28T00:12:00.412Z,0
2019-01-28T00:13:10.096Z,0
2019-01-28T00:14:19.789Z,0
2019-01-28T00:15:29.750Z,0
2019-01-28T00:16:39.694Z,0
2019-01-28T00:17:49.623Z,0
2019-01-28T00:18:59.327Z,0
2019-01-28T00:20:09.255Z,0
2019-01-28T00:21:18.690Z,0
2019-01-28T00:22:28.369Z,0
2019-01-28T00:23:37.832Z,0
2019-01-28T00:24:47.014Z,0
2019-01-28T00:25:56.947Z,0
2019-01-28T00:27:06.650Z,0
2019-01-28T00:28:16.345Z,0
2019-01-28T00:29:26.278Z,0
2019-01-28T00:30:35.718Z,0
2019-01-28T00:31:45.401Z,0
2019-01-28T00:32:55.339Z,0
2019-01-28T00:34:05.276Z,0
2019-01-28T00:35:15.225Z,0
2019-01-28T00:36:24.903Z,0
2019-01-28T00:37:34.851Z,0
2019-01-28T00:38:44.788Z,0
2019-01-28T00:39:54.221Z,0
2019-01-28T00:41:03.901Z,0
2019-01-28T00:42:13.591Z,0
2019-01-28T00:43:23.523Z,0
2019-01-28T00:44:33.465Z,0
2019-01-28T00:45:42.901Z,0
2019-01-28T00:46:52.341Z,0
2019-01-28T00:48:02.266Z,0
2019-01-28T00:49:11.948Z,0
2019-01-28T00:50:21.637Z,0
2019-01-28T00:51:31.316Z,0
2019-01-28T00:52:41.259Z,0
2019-01-28T00:53:50.688Z,0
2019-01-28T00:55:00.374Z,0
2019-01-28T00:56:10.059Z,0
2019-01-28T00:57:20.005Z,0
2019-01-28T00:58:29.687Z,0
2019-01-28T00:59:39.487Z,0
2019-01-28T01:00:49.149Z,0
2019-01-28T01:01:58.836Z,0
2019-01-28T01:03:08.542Z,0
2019-01-28T01:04:18.507Z,0
2019-01-28T01:05:28.509Z,0
2019-01-28T01:06:38.209Z,0
2019-01-28T01:07:48.171Z,0
2019-01-28T01:08:57.857Z,0
2019-01-28T01:10:07.799Z,0
2019-01-28T01:11:17.252Z,0
2019-01-28T01:12:27.206Z,0
2019-01-28T01:13:36.895Z,0
2019-01-28T01:14:46.590Z,0
2019-01-28T01:15:56.578Z,0
2019-01-28T01:17:06.529Z,0
2019-01-28T01:18:15.973Z,0
2019-01-28T01:19:25.908Z,0
2019-01-28T01:20:35.853Z,0
2019-01-28T01:21:45.789Z,0
2019-01-28T01:22:55.720Z,0
2019-01-28T01:24:05.685Z,0
2019-01-28T01:25:15.614Z,0
2019-01-28T01:26:25.547Z,0
2019-01-28T01:27:35.243Z,0
2019-01-28T01:28:45.197Z,0
2019-01-28T01:29:55.121Z,0
2019-01-28T01:31:04.307Z,0
2019-01-28T01:32:14.020Z,0
2019-01-28T01:33:23.967Z,0
2019-01-28T01:34:33.649Z,0
2019-01-28T01:35:43.584Z,0
2019-01-28T01:36:53.252Z,0
2019-01-28T01:38:02.952Z,0
2019-01-28T01:39:12.903Z,0
2019-01-28T01:40:22.597Z,0
2019-01-28T01:41:32.549Z,0
2019-01-28T01:42:41.977Z,0
2019-01-28T01:43:51.665Z,0
2019-01-28T01:45:01.339Z,0
2019-01-28T01:46:11.285Z,0
2019-01-28T01:47:21.213Z,0
2019-01-28T01:48:30.904Z,0
2019-01-28T01:49:40.343Z,0
2019-01-28T01:50:50.022Z,0
2019-01-28T01:51:59.714Z,0
2019-01-28T01:53:09.392Z,0
2019-01-28T01:54:19.331Z,0
2019-01-28T01:55:29.023Z,0
2019-01-28T01:56:38.701Z,0
2019-01-28T01:57:48.385Z,0
2019-01-28T01:58:58.066Z,0
2019-01-28T02:00:08.012Z,0
2019-01-28T02:01:17.959Z,0
2019-01-28T02:02:35.788Z,0
2019-01-28T02:03:45.479Z,0
2019-01-28T02:04:54.678Z,0
2019-01-28T02:06:04.611Z,0
2019-01-28T02:07:14.556Z,0
2019-01-28T02:08:24.244Z,0
2019-01-28T02:09:33.689Z,0
2019-01-28T02:10:43.384Z,0
2019-01-28T02:11:53.326Z,0
2019-01-28T02:13:03.023Z,0
2019-01-28T02:14:12.952Z,0
2019-01-28T02:15:22.644Z,0
2019-01-28T02:16:32.580Z,0
2019-01-28T02:17:42.530Z,0
2019-01-28T02:18:52.217Z,0
2019-01-28T02:20:01.898Z,0
2019-01-28T02:21:11.840Z,0
2019-01-28T02:22:21.783Z,0
2019-01-28T02:23:31.746Z,0
2019-01-28T02:24:41.447Z,0
2019-01-28T02:25:51.439Z,0
2019-01-28T02:27:01.380Z,0
2019-01-28T02:28:11.306Z,0
2019-01-28T02:29:21.255Z,0
2019-01-28T02:30:31.191Z,0
2019-01-28T02:31:40.900Z,0
2019-01-28T02:32:50.864Z,0
2019-01-28T02:34:00.591Z,0
2019-01-28T02:35:10.539Z,0
2019-01-28T02:36:20.234Z,0
2019-01-28T02:37:30.190Z,0
2019-01-28T02:38:40.121Z,0
2019-01-28T02:39:50.080Z,0
2019-01-28T02:41:00.036Z,0
2019-01-28T02:42:09.965Z,0
2019-01-28T02:43:19.663Z,0
2019-01-28T02:44:29.347Z,0
2019-01-28T02:45:39.291Z,0
2019-01-28T02:46:49.220Z,0
2019-01-28T02:47:59.359Z,0
2019-01-28T02:49:09.052Z,0
2019-01-28T02:50:18.995Z,0
2019-01-28T02:51:28.933Z,0
2019-01-28T02:52:38.882Z,0
2019-01-28T02:53:48.832Z,0
2019-01-28T02:54:58.782Z,0
2019-01-28T02:56:08.728Z,0
2019-01-28T02:57:18.662Z,0
2019-01-28T02:58:28.115Z,0
2019-01-28T02:59:38.051Z,0
2019-01-28T03:00:47.489Z,0
2019-01-28T03:01:59.123Z,0
2019-01-28T03:03:08.927Z,0
2019-01-28T03:04:18.634Z,0
2019-01-28T03:05:28.583Z,0
2019-01-28T03:06:38.273Z,0
2019-01-28T03:07:47.967Z,0
2019-01-28T03:08:57.905Z,0
2019-01-28T03:10:07.605Z,0
2019-01-28T03:11:17.717Z,0
2019-01-28T03:12:27.659Z,0
2019-01-28T03:13:37.349Z,0
2019-01-28T03:14:47.300Z,0
2019-01-28T03:15:57.005Z,0
2019-01-28T03:17:06.694Z,0
2019-01-28T03:18:16.406Z,0
2019-01-28T03:19:26.101Z,0
2019-01-28T03:20:36.046Z,0
2019-01-28T03:21:45.749Z,0
2019-01-28T03:22:55.444Z,0
2019-01-28T03:24:05.398Z,0
2019-01-28T03:25:15.337Z,0
2019-01-28T03:26:25.013Z,0
2019-01-28T03:27:34.709Z,0
2019-01-28T03:28:44.641Z,0
2019-01-28T03:29:54.594Z,0
2019-01-28T03:31:04.329Z,0
2019-01-28T03:32:14.410Z,0
2019-01-28T03:33:24.139Z,0
2019-01-28T03:34:33.579Z,0
2019-01-28T03:35:43.519Z,0
2019-01-28T03:36:53.198Z,0
2019-01-28T03:38:02.897Z,0
2019-01-28T03:39:12.845Z,0
2019-01-28T03:40:22.618Z,0
2019-01-28T03:41:32.577Z,0
2019-01-28T03:42:42.277Z,0
2019-01-28T03:43:51.718Z,0
2019-01-28T03:45:01.432Z,0
2019-01-28T03:46:12.335Z,0
2019-01-28T03:47:22.021Z,0
2019-01-28T03:48:31.961Z,0
2019-01-28T03:49:41.929Z,0
2019-01-28T03:50:51.625Z,0
2019-01-28T03:52:01.084Z,0
2019-01-28T03:53:10.282Z,0
2019-01-28T03:54:19.724Z,0
2019-01-28T03:55:29.691Z,0
2019-01-28T03:56:39.644Z,0
2019-01-28T03:57:49.347Z,0
2019-01-28T03:58:59.035Z,0
2019-01-28T04:00:08.964Z,0
2019-01-28T04:01:18.907Z,0
2019-01-28T04:02:28.619Z,0
2019-01-28T04:03:38.318Z,0
2019-01-28T04:04:48.024Z,0
2019-01-28T04:05:57.710Z,0
2019-01-28T04:07:07.447Z,0
2019-01-28T04:08:17.382Z,0
2019-01-28T04:09:27.333Z,0
2019-01-28T04:10:37.015Z,0
2019-01-28T04:11:46.993Z,0
2019-01-28T04:12:56.937Z,0
2019-01-28T04:14:06.635Z,0
2019-01-28T04:15:16.590Z,0
2019-01-28T04:16:26.282Z,0
2019-01-28T04:17:36.231Z,0
2019-01-28T04:18:45.934Z,0
2019-01-28T04:19:55.875Z,0
2019-01-28T04:21:05.870Z,0
2019-01-28T04:22:15.566Z,0
2019-01-28T04:23:24.747Z,0
2019-01-28T04:24:34.282Z,0
2019-01-28T04:25:43.976Z,0
2019-01-28T04:26:53.910Z,0
2019-01-28T04:28:03.613Z,0
2019-01-28T04:29:13.562Z,0
2019-01-28T04:30:23.259Z,0
2019-01-28T04:31:33.206Z,0
2019-01-28T04:32:42.638Z,0
2019-01-28T04:33:52.312Z,0
2019-01-28T04:35:02.030Z,0
2019-01-28T04:36:11.973Z,0
2019-01-28T04:37:21.947Z,0
2019-01-28T04:38:31.884Z,0
2019-01-28T04:39:41.318Z,0
2019-01-28T04:40:51.262Z,0
2019-01-28T04:42:01.196Z,0
2019-01-28T04:43:11.140Z,0
2019-01-28T04:44:22.825Z,0
2019-01-28T04:45:32.788Z,0
2019-01-28T04:46:42.490Z,0
2019-01-28T04:47:52.440Z,0
2019-01-28T04:49:02.374Z,0
2019-01-28T04:50:12.310Z,0
2019-01-28T04:51:22.021Z,0
2019-01-28T04:52:31.750Z,0
2019-01-28T04:53:41.899Z,0
2019-01-28T04:54:51.842Z,0
2019-01-28T04:56:01.780Z,0
2019-01-28T04:57:11.222Z,0
2019-01-28T04:58:20.900Z,0
2019-01-28T04:59:30.846Z,0
2019-01-28T05:00:40.805Z,0
2019-01-28T05:01:50.250Z,0
2019-01-28T05:02:59.930Z,0
2019-01-28T05:04:09.643Z,0
2019-01-28T05:05:19.600Z,0
2019-01-28T05:06:29.296Z,0
2019-01-28T05:07:38.975Z,0
2019-01-28T05:08:48.663Z,0
2019-01-28T05:09:58.655Z,0
2019-01-28T05:11:08.603Z,0
2019-01-28T05:12:18.556Z,0
2019-01-28T05:13:27.982Z,0
2019-01-28T05:14:37.667Z,0
2019-01-28T05:15:47.388Z,0
2019-01-28T05:16:56.828Z,0
2019-01-28T05:18:06.764Z,0
2019-01-28T05:19:16.705Z,0
2019-01-28T05:20:26.670Z,0
2019-01-28T05:21:36.644Z,0
2019-01-28T05:22:46.584Z,0
2019-01-28T05:23:56.526Z,0
2019-01-28T05:25:06.502Z,0
2019-01-28T05:26:16.083Z,0
2019-01-28T05:27:26.019Z,0
2019-01-28T05:28:35.707Z,0
2019-01-28T05:29:45.400Z,0
2019-01-28T05:30:55.323Z,0
2019-01-28T05:32:05.279Z,0
2019-01-28T05:33:15.934Z,0
2019-01-28T05:34:25.634Z,0
2019-01-28T05:35:35.327Z,0
2019-01-28T05:36:45.015Z,0
2019-01-28T05:37:55.111Z,0
2019-01-28T05:39:05.044Z,0
2019-01-28T05:40:14.976Z,0
2019-01-28T05:41:24.911Z,0
2019-01-28T05:42:34.854Z,0
2019-01-28T05:43:44.567Z,0
2019-01-28T05:44:54.972Z,0
2019-01-28T05:46:04.938Z,0
2019-01-28T05:47:14.634Z,0
2019-01-28T05:48:24.319Z,0
2019-01-28T05:49:34.246Z,0
2019-01-28T05:50:44.189Z,0
2019-01-28T05:51:53.895Z,0
2019-01-28T05:53:03.871Z,0
2019-01-28T05:54:13.812Z,0
2019-01-28T05:55:23.508Z,0
2019-01-28T05:56:33.213Z,0
2019-01-28T05:57:42.904Z,0
2019-01-28T05:58:52.868Z,0
2019-01-28T06:00:02.593Z,0
2019-01-28T06:01:12.536Z,0
2019-01-28T06:02:21.966Z,0
2019-01-28T06:03:31.929Z,0
2019-01-28T06:04:41.640Z,0
2019-01-28T06:05:51.611Z,0
2019-01-28T06:07:01.312Z,0
2019-01-28T06:08:12.659Z,0
2019-01-28T06:09:22.611Z,0
2019-01-28T06:10:32.296Z,0
2019-01-28T06:11:41.981Z,0
2019-01-28T06:12:51.689Z,0
2019-01-28T06:14:01.136Z,0
2019-01-28T06:15:10.576Z,0
2019-01-28T06:16:20.524Z,0
2019-01-28T06:17:29.954Z,0
2019-01-28T06:18:39.910Z,0
2019-01-28T06:19:49.351Z,0
2019-01-28T06:20:59.290Z,0
2019-01-28T06:22:08.991Z,0
2019-01-28T06:23:18.941Z,0
2019-01-28T06:24:28.872Z,0
2019-01-28T06:25:38.573Z,0
2019-01-28T06:26:48.003Z,0
2019-01-28T06:27:57.951Z,0
2019-01-28T06:29:07.916Z,0
2019-01-28T06:30:17.849Z,0
2019-01-28T06:31:27.524Z,0
2019-01-28T06:32:37.459Z,0
2019-01-28T06:33:47.446Z,0
2019-01-28T06:34:57.382Z,0
2019-01-28T06:36:07.316Z,0
2019-01-28T06:37:17.328Z,0
2019-01-28T06:38:27.258Z,0
2019-01-28T06:39:36.956Z,0
2019-01-28T06:40:46.943Z,0
2019-01-28T06:41:56.887Z,0
2019-01-28T06:43:06.811Z,0
2019-01-28T06:44:16.498Z,5
2019-01-28T06:45:26.438Z,5
2019-01-28T06:46:36.156Z,5
2019-01-28T06:47:53.759Z,5
2019-01-28T06:49:03.195Z,5
2019-01-28T06:50:13.155Z,5
2019-01-28T06:51:23.113Z,10
2019-01-28T06:52:32.823Z,10
2019-01-28T06:53:42.521Z,10
2019-01-28T06:54:52.207Z,10
2019-01-28T06:56:02.152Z,15
2019-01-28T06:57:12.094Z,15
2019-01-28T06:58:21.528Z,15
2019-01-28T06:59:31.219Z,15
2019-01-28T07:00:40.916Z,20
2019-01-28T07:01:52.677Z,20
2019-01-28T07:03:02.643Z,25
2019-01-28T07:04:12.339Z,25
2019-01-28T07:05:21.767Z,25
2019-01-28T07:06:31.722Z,30
2019-01-28T07:07:41.415Z,30
2019-01-28T07:08:51.407Z,35
2019-01-28T07:10:01.121Z,35
2019-01-28T07:11:11.116Z,35
2019-01-28T07:12:21.057Z,40
2019-01-28T07:13:31.010Z,40
2019-01-28T07:14:40.980Z,45
2019-01-28T07:15:50.928Z,50
2019-01-28T07:17:00.906Z,50
2019-01-28T07:18:10.361Z,50
2019-01-28T07:19:20.298Z,50
2019-01-28T07:20:30.287Z,55
2019-01-28T07:21:40.278Z,60
2019-01-28T07:22:50.227Z,60
2019-01-28T07:24:00.207Z,65
2019-01-28T07:25:10.198Z,65
2019-01-28T07:26:20.137Z,70
2019-01-28T07:27:29.859Z,75
2019-01-28T07:28:39.799Z,75
2019-01-28T07:29:49.734Z,75
2019-01-28T07:30:59.694Z,80
2019-01-28T07:32:09.481Z,80
2019-01-28T07:33:19.414Z,80
2019-01-28T07:34:29.353Z,85
2019-01-28T07:35:39.304Z,85
2019-01-28T07:36:48.989Z,90
2019-01-28T07:37:58.946Z,95
2019-01-28T07:39:10.168Z,95
2019-01-28T07:40:19.877Z,95
2019-01-28T07:41:29.834Z,100
2019-01-28T07:42:39.781Z,105
2019-01-28T07:43:49.483Z,105
2019-01-28T07:44:59.467Z,105
2019-01-28T07:46:09.417Z,105
2019-01-28T07:47:19.122Z,105
2019-01-28T07:48:28.793Z,105
2019-01-28T07:49:38.488Z,110
2019-01-28T07:50:48.205Z,115
2019-01-28T07:51:58.196Z,110
2019-01-28T07:53:08.165Z,115
2019-01-28T07:54:18.107Z,115
2019-01-28T07:55:27.586Z,115
2019-01-28T07:56:37.572Z,120
2019-01-28T07:57:47.520Z,120
2019-01-28T07:58:57.213Z,125
2019-01-28T08:00:07.151Z,125
2019-01-28T08:01:16.844Z,125
2019-01-28T08:02:26.817Z,130
2019-01-28T08:03:36.515Z,135
2019-01-28T08:04:46.473Z,145
2019-01-28T08:05:56.165Z,155
2019-01-28T08:07:08.869Z,160
2019-01-28T08:08:18.555Z,165
2019-01-28T08:09:28.503Z,170
2019-01-28T08:10:38.738Z,175
2019-01-28T08:11:48.703Z,180
2019-01-28T08:12:57.931Z,185
2019-01-28T08:14:07.883Z,195
2019-01-28T08:15:17.591Z,195
2019-01-28T08:16:27.579Z,205
2019-01-28T08:17:37.273Z,205
2019-01-28T08:18:47.267Z,215
2019-01-28T08:19:57.237Z,225
2019-01-28T08:21:07.194Z,235
2019-01-28T08:22:17.113Z,240
2019-01-28T08:23:26.837Z,245
2019-01-28T08:24:36.646Z,250
2019-01-28T08:25:46.654Z,260
2019-01-28T08:26:56.625Z,260
2019-01-28T08:28:06.582Z,275
2019-01-28T08:29:16.575Z,275
2019-01-28T08:30:26.566Z,280
2019-01-28T08:31:36.274Z,285
2019-01-28T08:32:45.981Z,285
2019-01-28T08:33:55.933Z,295
2019-01-28T08:35:05.638Z,310
2019-01-28T08:36:15.571Z,320
2019-01-28T08:37:25.278Z,340
2019-01-28T08:38:35.238Z,365
2019-01-28T08:39:45.443Z,405
2019-01-28T08:40:55.397Z,410
2019-01-28T08:42:05.439Z,415
2019-01-28T08:43:17.103Z,405
2019-01-28T08:44:26.809Z,330
2019-01-28T08:45:36.745Z,375
2019-01-28T08:46:46.460Z,365
2019-01-28T08:47:56.417Z,455
2019-01-28T08:49:06.632Z,485
2019-01-28T08:50:16.599Z,495
2019-01-28T08:51:26.632Z,505
2019-01-28T08:52:36.398Z,510
2019-01-28T08:53:46.360Z,540
2019-01-28T08:54:56.344Z,550
2019-01-28T08:56:05.795Z,560
2019-01-28T08:57:15.729Z,585
2019-01-28T08:58:25.689Z,575
2019-01-28T08:59:35.627Z,615
2019-01-28T09:00:45.564Z,605
2019-01-28T09:01:55.506Z,610
2019-01-28T09:03:05.453Z,635
2019-01-28T09:04:15.430Z,685
2019-01-28T09:05:26.968Z,650
2019-01-28T09:06:36.681Z,660
2019-01-28T09:07:46.703Z,690
2019-01-28T09:08:56.688Z,675
2019-01-28T09:10:06.169Z,705
2019-01-28T09:11:16.121Z,750
2019-01-28T09:12:26.096Z,750
2019-01-28T09:13:35.797Z,770
2019-01-28T09:14:45.519Z,775
2019-01-28T09:15:55.485Z,775
2019-01-28T09:17:05.443Z,725
2019-01-28T09:18:15.384Z,755
2019-01-28T09:19:25.376Z,800
2019-01-28T09:20:35.315Z,865
2019-01-28T09:21:45.029Z,870
2019-01-28T09:22:55.016Z,860
2019-01-28T09:24:04.467Z,865
2019-01-28T09:25:14.674Z,850
2019-01-28T09:26:24.623Z,885
2019-01-28T09:27:34.574Z,920
2019-01-28T09:28:44.510Z,945
2019-01-28T09:29:54.442Z,960
2019-01-28T09:31:04.386Z,995
2019-01-28T09:32:14.374Z,1030
2019-01-28T09:33:24.084Z,945
2019-01-28T09:34:33.761Z,970
2019-01-28T09:35:43.712Z,960
2019-01-28T09:36:53.663Z,1005
2019-01-28T09:38:03.369Z,1005
2019-01-28T09:39:13.314Z,1020
2019-01-28T09:40:23.015Z,1030
2019-01-28T09:41:37.952Z,945
2019-01-28T09:42:47.645Z,965
2019-01-28T09:43:57.589Z,1020
2019-01-28T09:45:07.542Z,1055
2019-01-28T09:46:17.490Z,1105
2019-01-28T09:47:27.241Z,1060
2019-01-28T09:48:43.848Z,1005
2019-01-28T09:49:53.810Z,1020
2019-01-28T09:51:03.762Z,985
2019-01-28T09:52:13.745Z,1005
2019-01-28T09:53:23.439Z,980
2019-01-28T09:54:33.407Z,1025
2019-01-28T09:55:43.355Z,1100
2019-01-28T09:56:53.341Z,1075
2019-01-28T09:58:03.288Z,820
2019-01-28T09:59:13.010Z,1000
2019-01-28T10:00:22.967Z,1250
2019-01-28T10:01:32.919Z,1235
2019-01-28T10:02:42.652Z,1340
2019-01-28T10:03:52.631Z,1330
2019-01-28T10:05:02.393Z,1255
2019-01-28T10:06:12.156Z,1320
2019-01-28T10:07:21.865Z,1315
2019-01-28T10:08:31.858Z,1270
2019-01-28T10:09:41.560Z,1250
2019-01-28T10:10:51.503Z,1310
2019-01-28T10:12:01.496Z,1330
2019-01-28T10:13:11.482Z,1175
2019-01-28T10:14:21.420Z,1200
2019-01-28T10:15:36.036Z,1205
2019-01-28T10:16:45.473Z,1220
2019-01-28T10:17:55.714Z,1305
2019-01-28T10:19:05.626Z,1400
2019-01-28T10:20:15.316Z,1385
2019-01-28T10:21:25.281Z,1505
2019-01-28T10:22:34.728Z,1490
2019-01-28T10:23:44.190Z,1525
2019-01-28T10:24:53.642Z,1495
2019-01-28T10:26:07.362Z,1500
2019-01-28T10:27:17.308Z,1535
2019-01-28T10:28:27.056Z,1520
2019-01-28T10:29:37.002Z,1525
2019-01-28T10:30:46.776Z,1545
2019-01-28T10:31:56.736Z,1555
2019-01-28T10:33:06.191Z,1570
2019-01-28T10:34:23.296Z,1560
2019-01-28T10:35:33.257Z,1620
2019-01-28T10:36:43.860Z,865
2019-01-28T10:37:53.817Z,1330
2019-01-28T10:39:03.283Z,565
2019-01-28T10:40:14.324Z,655
2019-01-28T10:41:24.043Z,1565
2019-01-28T10:42:34.023Z,1590
2019-01-28T10:43:43.752Z,1620
2019-01-28T10:44:53.742Z,1390
2019-01-28T10:46:03.472Z,1465
2019-01-28T10:47:13.432Z,755
2019-01-28T10:48:22.892Z,1435
2019-01-28T10:49:32.854Z,1570
2019-01-28T10:50:42.836Z,1555
2019-01-28T10:51:52.633Z,1590
2019-01-28T10:53:02.630Z,1705
2019-01-28T10:54:12.587Z,1695
2019-01-28T10:55:22.334Z,1700
2019-01-28T10:56:32.303Z,1765
2019-01-28T10:57:42.005Z,1880
2019-01-28T10:58:51.982Z,1725
2019-01-28T11:00:01.960Z,1675
2019-01-28T11:01:11.908Z,1680
2019-01-28T11:02:21.608Z,1775
2019-01-28T11:03:31.552Z,1680
2019-01-28T11:04:41.508Z,1745
2019-01-28T11:05:51.213Z,1820
2019-01-28T11:07:01.185Z,1800
2019-01-28T11:08:10.898Z,1815
2019-01-28T11:09:21.055Z,1880
2019-01-28T11:10:30.924Z,500
2019-01-28T11:11:42.387Z,1710
2019-01-28T11:12:52.765Z,1460
2019-01-28T11:14:03.027Z,1725
2019-01-28T11:15:13.020Z,1645
2019-01-28T11:16:23.247Z,680
2019-01-28T11:17:33.388Z,795
2019-01-28T11:18:43.638Z,860
2019-01-28T11:19:53.688Z,615
2019-01-28T11:21:03.938Z,555
2019-01-28T11:22:14.060Z,930
2019-01-28T11:23:24.456Z,590
2019-01-28T11:24:34.512Z,990
2019-01-28T11:25:44.620Z,585
2019-01-28T11:26:54.963Z,1580
2019-01-28T11:28:04.987Z,1605
2019-01-28T11:29:15.001Z,1335
2019-01-28T11:30:25.142Z,1260
2019-01-28T11:31:35.373Z,1505
2019-01-28T11:32:45.553Z,1695
2019-01-28T11:33:55.579Z,1555
2019-01-28T11:35:06.052Z,1685
2019-01-28T11:36:16.216Z,735
2019-01-28T11:37:26.669Z,1180
2019-01-28T11:38:36.823Z,625
2019-01-28T11:39:47.066Z,545
2019-01-28T11:40:57.040Z,415
2019-01-28T11:42:07.429Z,390
2019-01-28T11:43:17.670Z,420
2019-01-28T11:44:27.650Z,525
2019-01-28T11:45:38.013Z,605
2019-01-28T11:46:48.412Z,615
2019-01-28T11:47:58.901Z,655
2019-01-28T11:49:15.849Z,950
2019-01-28T11:50:25.906Z,825
2019-01-28T11:51:35.852Z,1180
2019-01-28T11:52:45.536Z,825
2019-01-28T11:53:55.228Z,865
2019-01-28T11:55:04.924Z,560
2019-01-28T11:56:14.633Z,395
2019-01-28T11:57:24.604Z,335
2019-01-28T11:58:34.548Z,310
2019-01-28T11:59:44.507Z,285
2019-01-28T12:00:54.458Z,270
2019-01-28T12:02:04.427Z,225
2019-01-28T12:03:14.385Z,175
2019-01-28T12:04:26.269Z,170
2019-01-28T12:05:35.737Z,185
2019-01-28T12:06:45.211Z,200
2019-01-28T12:07:54.653Z,200
2019-01-28T12:09:04.350Z,185
2019-01-28T12:10:14.301Z,160
2019-01-28T12:11:23.993Z,150
2019-01-28T12:12:33.417Z,140
2019-01-28T12:13:43.380Z,140
2019-01-28T12:14:53.077Z,160
2019-01-28T12:16:02.778Z,180
2019-01-28T12:17:12.227Z,220
2019-01-28T12:18:21.696Z,260
2019-01-28T12:19:31.397Z,300
2019-01-28T12:20:41.348Z,340
2019-01-28T12:21:51.056Z,375
2019-01-28T12:23:01.003Z,390
2019-01-28T12:24:10.697Z,390
2019-01-28T12:25:20.459Z,385
2019-01-28T12:26:30.416Z,400
2019-01-28T12:27:40.584Z,405
2019-01-28T12:28:50.550Z,410
2019-01-28T12:30:00.271Z,430
2019-01-28T12:31:10.236Z,455
2019-01-28T12:32:19.944Z,470
2019-01-28T12:33:29.906Z,535
2019-01-28T12:34:44.253Z,495
2019-01-28T12:35:53.712Z,525
2019-01-28T12:37:03.719Z,595
2019-01-28T12:38:13.675Z,660
2019-01-28T12:39:23.684Z,1230
2019-01-28T12:40:33.649Z,715
2019-01-28T12:41:43.357Z,740
2019-01-28T12:42:55.014Z,705
2019-01-28T12:44:04.958Z,645
2019-01-28T12:45:14.892Z,585
2019-01-28T12:46:24.841Z,515
2019-01-28T12:47:34.301Z,480
2019-01-28T12:48:43.496Z,470
2019-01-28T12:49:53.458Z,460
2019-01-28T12:51:03.182Z,435
2019-01-28T12:52:13.205Z,420
2019-01-28T12:53:22.992Z,435
2019-01-28T12:54:32.989Z,420
2019-01-28T12:55:43.606Z,385
2019-01-28T12:56:53.316Z,370
2019-01-28T12:58:03.015Z,350
2019-01-28T12:59:18.630Z,315
2019-01-28T13:00:28.596Z,275
2019-01-28T13:01:38.304Z,255
2019-01-28T13:02:48.245Z,215
2019-01-28T13:03:57.935Z,195
2019-01-28T13:05:07.883Z,185
2019-01-28T13:06:17.835Z,195
2019-01-28T13:07:27.791Z,210
2019-01-28T13:08:37.527Z,230
2019-01-28T13:09:46.963Z,255
2019-01-28T13:10:56.422Z,295
2019-01-28T13:12:06.151Z,355
2019-01-28T13:13:16.160Z,395
2019-01-28T13:14:25.611Z,345
2019-01-28T13:15:35.606Z,305
2019-01-28T13:16:45.302Z,280
2019-01-28T13:17:54.743Z,250
2019-01-28T13:19:04.697Z,205
2019-01-28T13:20:14.395Z,180
2019-01-28T13:21:24.358Z,175
2019-01-28T13:22:34.322Z,200
2019-01-28T13:23:45.429Z,250
2019-01-28T13:24:55.112Z,280
2019-01-28T13:26:05.071Z,275
2019-01-28T13:27:14.770Z,260
2019-01-28T13:28:24.721Z,255
2019-01-28T13:29:34.528Z,250
2019-01-28T13:30:44.505Z,230
2019-01-28T13:31:54.469Z,200
2019-01-28T13:33:04.184Z,190
2019-01-28T13:34:14.154Z,185
2019-01-28T13:35:24.098Z,175
2019-01-28T13:36:33.563Z,175
2019-01-28T13:37:43.543Z,175
2019-01-28T13:38:53.508Z,175
2019-01-28T13:40:03.483Z,180
2019-01-28T13:41:13.195Z,180
2019-01-28T13:42:23.177Z,170
2019-01-28T13:43:32.883Z,165
2019-01-28T13:44:42.821Z,155
2019-01-28T13:45:52.781Z,145
2019-01-28T13:47:02.737Z,145
2019-01-28T13:48:12.701Z,145
2019-01-28T13:49:21.887Z,140
2019-01-28T13:50:32.087Z,140
2019-01-28T13:51:41.817Z,135
2019-01-28T13:52:51.523Z,130
2019-01-28T13:54:01.491Z,125
2019-01-28T13:55:11.435Z,120
2019-01-28T13:56:21.400Z,115
2019-01-28T13:57:31.105Z,110
2019-01-28T13:58:41.045Z,105
2019-01-28T13:59:51.006Z,95
2019-01-28T14:01:00.950Z,90
2019-01-28T14:02:10.663Z,80
2019-01-28T14:03:20.627Z,75
2019-01-28T14:04:30.553Z,80
2019-01-28T14:05:40.280Z,85
2019-01-28T14:06:50.062Z,90
2019-01-28T14:07:59.765Z,95
2019-01-28T14:09:09.465Z,90
2019-01-28T14:10:19.425Z,85
2019-01-28T14:11:29.364Z,80
2019-01-28T14:12:39.324Z,75
2019-01-28T14:13:49.275Z,75
2019-01-28T14:14:59.244Z,80
2019-01-28T14:16:08.679Z,85
2019-01-28T14:17:18.627Z,90
2019-01-28T14:18:28.818Z,95
2019-01-28T14:19:46.032Z,95
2019-01-28T14:21:00.611Z,105
2019-01-28T14:22:10.553Z,100
2019-01-28T14:23:20.257Z,90
2019-01-28T14:24:30.225Z,85
2019-01-28T14:25:40.202Z,80
2019-01-28T14:26:49.907Z,75
2019-01-28T14:27:59.877Z,75
2019-01-28T14:29:09.837Z,65
2019-01-28T14:30:19.805Z,65
2019-01-28T14:31:29.739Z,65
2019-01-28T14:32:39.183Z,60
2019-01-28T14:33:49.121Z,60
2019-01-28T14:34:58.501Z,60
2019-01-28T14:36:08.515Z,65
2019-01-28T14:37:18.451Z,65
2019-01-28T14:38:27.921Z,65
2019-01-28T14:39:37.883Z,70
2019-01-28T14:40:47.588Z,75
2019-01-28T14:41:57.542Z,85
2019-01-28T14:43:07.229Z,90
2019-01-28T14:44:18.363Z,95
2019-01-28T14:45:28.060Z,100
2019-01-28T14:46:37.762Z,100
2019-01-28T14:47:47.392Z,100
2019-01-28T14:48:58.478Z,95
2019-01-28T14:50:08.429Z,85
2019-01-28T14:51:18.408Z,75
2019-01-28T14:52:28.361Z,70
2019-01-28T14:53:38.631Z,65
2019-01-28T14:54:48.579Z,65
2019-01-28T14:55:58.552Z,60
2019-01-28T14:57:08.280Z,60
2019-01-28T14:58:23.691Z,55
2019-01-28T14:59:33.372Z,50
2019-01-28T15:00:43.324Z,50
2019-01-28T15:01:53.272Z,50
2019-01-28T15:03:02.727Z,50
2019-01-28T15:04:16.987Z,55
2019-01-28T15:05:26.683Z,50
2019-01-28T15:06:36.622Z,50
2019-01-28T15:07:47.090Z,45
2019-01-28T15:08:57.154Z,40
2019-01-28T15:10:06.853Z,35
2019-01-28T15:11:16.807Z,35
2019-01-28T15:12:26.751Z,30
2019-01-28T15:13:36.721Z,30
2019-01-28T15:14:46.411Z,25
2019-01-28T15:15:56.091Z,25
2019-01-28T15:17:05.843Z,20
2019-01-28T15:18:15.782Z,20
2019-01-28T15:19:25.740Z,15
2019-01-28T15:20:35.432Z,20
2019-01-28T15:21:45.356Z,15
2019-01-28T15:22:55.293Z,15
2019-01-28T15:24:05.259Z,15
2019-01-28T15:25:14.948Z,10
2019-01-28T15:26:24.977Z,5
2019-01-28T15:27:34.951Z,5
2019-01-28T15:28:44.884Z,5
2019-01-28T15:29:54.825Z,5
2019-01-28T15:31:04.942Z,5
2019-01-28T15:32:14.895Z,5
2019-01-28T15:33:25.093Z,5
2019-01-28T15:34:35.335Z,5
2019-01-28T15:35:45.055Z,5
2019-01-28T15:36:54.993Z,5
2019-01-28T15:38:04.963Z,5
2019-01-28T15:39:14.971Z,5
2019-01-28T15:40:24.921Z,5
2019-01-28T15:41:34.604Z,5
2019-01-28T15:42:44.546Z,5
2019-01-28T15:43:53.975Z,5
2019-01-28T15:45:11.065Z,5
2019-01-28T15:46:21.349Z,5
2019-01-28T15:47:31.344Z,5
2019-01-28T15:48:41.321Z,5
2019-01-28T15:49:51.273Z,5
2019-01-28T15:51:01.211Z,0
2019-01-28T15:52:10.898Z,0
2019-01-28T15:53:20.827Z,0
2019-01-28T15:54:30.768Z,0
2019-01-28T15:55:40.717Z,0
2019-01-28T15:56:50.667Z,0
2019-01-28T15:58:00.612Z,0
2019-01-28T15:59:10.568Z,0
2019-01-28T16:00:20.511Z,0
2019-01-28T16:01:30.196Z,0
2019-01-28T16:02:39.883Z,0
2019-01-28T16:03:49.837Z,0
2019-01-28T16:04:59.773Z,0
2019-01-28T16:06:09.479Z,0
2019-01-28T16:07:19.739Z,0
2019-01-28T16:08:29.720Z,0
2019-01-28T16:09:39.667Z,0
2019-01-28T16:10:49.612Z,0
2019-01-28T16:11:59.606Z,0
2019-01-28T16:13:09.067Z,0
2019-01-28T16:14:19.025Z,0
2019-01-28T16:15:28.800Z,0
2019-01-28T16:16:38.462Z,0
2019-01-28T16:17:48.104Z,0
2019-01-28T16:18:57.535Z,0
2019-01-28T16:20:08.938Z,0
2019-01-28T16:21:18.890Z,0
2019-01-28T16:22:28.587Z,0
2019-01-28T16:23:38.297Z,0
2019-01-28T16:24:48.236Z,0
2019-01-28T16:25:57.929Z,0
2019-01-28T16:27:07.871Z,0
2019-01-28T16:28:17.825Z,0
2019-01-28T16:29:27.867Z,0
2019-01-28T16:30:37.593Z,0
2019-01-28T16:31:47.049Z,0
2019-01-28T16:32:56.767Z,0
2019-01-28T16:34:06.196Z,0
2019-01-28T16:35:16.134Z,0
2019-01-28T16:36:26.073Z,0
2019-01-28T16:37:36.032Z,0